createdAt,value
2024-01-29T00:02:18.877Z,17.69
2024-01-29T00:04:45.910Z,16.65
2024-01-29T00:07:12.963Z,16.89
2024-01-29T00:09:40.026Z,17.85
2024-01-29T00:12:07.292Z,17.39
2024-01-29T00:14:34.280Z,17.24
2024-01-29T00:17:01.194Z,17.04
2024-01-29T00:19:28.230Z,19.66
2024-01-29T00:21:55.365Z,20.14
2024-01-29T00:24:22.821Z,20.96
2024-01-29T00:26:49.758Z,20.56
2024-01-29T00:29:16.683Z,21.21
2024-01-29T00:31:43.618Z,21.08
2024-01-29T00:34:10.739Z,21.61
2024-01-29T00:36:37.826Z,23.74
2024-01-29T00:39:04.765Z,21.13
2024-01-29T00:41:31.728Z,22.34
2024-01-29T00:43:58.700Z,21.12
2024-01-29T00:46:25.667Z,20.91
2024-01-29T00:48:52.693Z,23.19
2024-01-29T00:51:19.724Z,21.83
2024-01-29T00:53:46.677Z,21.35
2024-01-29T00:56:13.633Z,21.15
2024-01-29T00:58:40.575Z,21.77
2024-01-29T01:01:07.569Z,22.11
2024-01-29T01:03:34.745Z,21.19
2024-01-29T01:06:01.811Z,22.01
2024-01-29T01:08:28.778Z,21.80
2024-01-29T01:10:55.766Z,22.36
2024-01-29T01:13:22.728Z,22.31
2024-01-29T01:15:49.745Z,21.38
2024-01-29T01:18:16.973Z,21.13
2024-01-29T01:20:43.954Z,21.00
2024-01-29T01:23:11.905Z,21.52
2024-01-29T01:25:38.857Z,22.57
2024-01-29T01:28:06.161Z,22.82
2024-01-29T01:30:33.230Z,21.95
2024-01-29T01:33:00.188Z,22.34
2024-01-29T01:35:27.182Z,22.60
2024-01-29T01:37:54.108Z,22.67
2024-01-29T01:40:21.121Z,22.08
2024-01-29T01:42:48.165Z,22.50
2024-01-29T01:45:15.110Z,22.07
2024-01-29T01:47:42.622Z,22.50
2024-01-29T01:50:09.940Z,23.35
2024-01-29T01:52:37.113Z,22.57
2024-01-29T01:55:04.335Z,23.24
2024-01-29T01:57:31.438Z,23.39
2024-01-29T01:59:58.392Z,22.15
2024-01-29T02:02:25.387Z,22.93
2024-01-29T02:04:52.342Z,22.58
2024-01-29T02:07:19.530Z,22.84
2024-01-29T02:09:46.613Z,24.85
2024-01-29T02:12:13.620Z,23.97
2024-01-29T02:14:40.606Z,21.11
2024-01-29T02:17:07.387Z,21.58
2024-01-29T02:19:34.297Z,20.78
2024-01-29T02:22:01.358Z,20.59
2024-01-29T02:24:28.252Z,20.10
2024-01-29T02:26:55.025Z,20.14
2024-01-29T02:29:21.810Z,18.33
2024-01-29T02:31:48.613Z,17.00
2024-01-29T02:34:15.515Z,17.33
2024-01-29T02:36:44.614Z,17.37
2024-01-29T02:39:11.416Z,17.06
2024-01-29T02:41:38.190Z,17.47
2024-01-29T02:44:05.206Z,17.48
2024-01-29T02:46:32.070Z,18.14
2024-01-29T02:48:58.940Z,18.44
2024-01-29T02:51:25.807Z,18.09
2024-01-29T02:53:52.634Z,18.82
2024-01-29T02:56:19.394Z,18.64
2024-01-29T02:58:46.176Z,18.99
2024-01-29T03:01:13.054Z,19.20
2024-01-29T03:03:39.980Z,19.14
2024-01-29T03:06:07.251Z,21.13
2024-01-29T03:08:34.050Z,20.20
2024-01-29T03:11:00.829Z,20.65
2024-01-29T03:13:27.582Z,20.70
2024-01-29T03:15:54.568Z,20.46
2024-01-29T03:18:21.701Z,22.02
2024-01-29T03:20:48.773Z,22.14
2024-01-29T03:23:15.696Z,21.09
2024-01-29T03:25:42.647Z,21.51
2024-01-29T03:28:09.650Z,21.23
2024-01-29T03:30:36.608Z,20.97
2024-01-29T03:33:03.779Z,21.32
2024-01-29T03:35:30.789Z,21.15
2024-01-29T03:37:57.745Z,21.39
2024-01-29T03:40:24.687Z,21.68
2024-01-29T03:42:51.700Z,21.88
2024-01-29T03:45:18.648Z,21.29
2024-01-29T03:47:47.698Z,20.88
2024-01-29T03:50:14.693Z,21.45
2024-01-29T03:52:41.734Z,21.80
2024-01-29T03:55:08.850Z,22.13
2024-01-29T03:57:35.875Z,22.20
2024-01-29T04:00:22.859Z,22.02
2024-01-29T04:02:49.870Z,22.28
2024-01-29T04:05:17.845Z,22.98
2024-01-29T04:07:48.011Z,22.36
2024-01-29T04:10:15.029Z,22.22
2024-01-29T04:12:41.874Z,21.88
2024-01-29T04:15:08.890Z,22.25
2024-01-29T04:17:36.061Z,22.53
2024-01-29T04:20:06.405Z,22.11
2024-01-29T04:22:33.763Z,22.93
2024-01-29T04:25:05.200Z,21.70
2024-01-29T04:27:32.082Z,21.67
2024-01-29T04:29:58.866Z,22.37
2024-01-29T04:32:25.689Z,22.41
2024-01-29T04:34:53.954Z,22.42
2024-01-29T04:37:20.776Z,22.46
2024-01-29T04:39:47.644Z,23.27
2024-01-29T04:42:15.036Z,23.28
2024-01-29T04:44:41.852Z,22.41
2024-01-29T04:47:08.624Z,22.82
2024-01-29T04:49:35.434Z,22.17
2024-01-29T04:52:02.297Z,23.42
2024-01-29T04:54:29.155Z,23.31
2024-01-29T04:56:55.909Z,23.43
2024-01-29T04:59:23.064Z,23.73
2024-01-29T05:01:50.032Z,24.47
2024-01-29T05:04:17.071Z,23.55
2024-01-29T05:06:44.076Z,23.85
2024-01-29T05:09:10.852Z,23.49
2024-01-29T05:11:37.624Z,23.13
2024-01-29T05:14:04.421Z,23.03
2024-01-29T05:16:31.180Z,22.43
2024-01-29T05:18:58.020Z,22.80
2024-01-29T05:21:24.873Z,21.69
2024-01-29T05:23:51.703Z,22.10
2024-01-29T05:26:18.483Z,22.05
2024-01-29T05:28:45.250Z,22.02
2024-01-29T05:31:12.063Z,22.25
2024-01-29T05:33:38.971Z,22.18
2024-01-29T05:36:06.106Z,22.46
2024-01-29T05:38:32.878Z,22.63
2024-01-29T05:40:59.666Z,22.29
2024-01-29T05:43:26.552Z,21.95
2024-01-29T05:45:53.379Z,22.29
2024-01-29T05:48:20.269Z,22.53
2024-01-29T05:50:47.073Z,23.63
2024-01-29T05:53:13.834Z,23.12
2024-01-29T05:55:40.672Z,23.36
2024-01-29T05:58:07.551Z,23.50
2024-01-29T06:00:34.499Z,23.30
2024-01-29T06:03:01.493Z,22.97
2024-01-29T06:05:28.369Z,22.81
2024-01-29T06:07:55.513Z,22.28
2024-01-29T06:10:22.624Z,21.71
2024-01-29T06:12:49.990Z,21.86
2024-01-29T06:15:16.972Z,27.20
2024-01-29T06:17:44.181Z,23.01
2024-01-29T06:20:17.418Z,23.52
2024-01-29T06:22:46.862Z,22.43
2024-01-29T06:25:13.956Z,22.24
2024-01-29T06:27:41.270Z,22.66
2024-01-29T06:30:08.429Z,22.26
2024-01-29T06:32:35.405Z,23.71
2024-01-29T06:35:02.548Z,21.93
2024-01-29T06:37:29.645Z,21.81
2024-01-29T06:39:56.664Z,22.55
2024-01-29T06:42:24.385Z,21.82
2024-01-29T06:44:51.377Z,21.99
2024-01-29T06:47:18.313Z,22.21
2024-01-29T06:49:45.294Z,22.28
2024-01-29T06:52:15.715Z,23.94
2024-01-29T06:54:45.939Z,22.36
2024-01-29T06:57:14.568Z,22.62
2024-01-29T06:59:41.640Z,22.12
2024-01-29T07:02:08.652Z,21.04
2024-01-29T07:04:35.868Z,22.55
2024-01-29T07:07:03.029Z,20.46
2024-01-29T07:09:30.712Z,20.97
2024-01-29T07:11:59.298Z,23.51
2024-01-29T07:14:26.384Z,23.64
2024-01-29T07:16:53.436Z,24.59
2024-01-29T07:19:20.561Z,24.13
2024-01-29T07:21:47.608Z,22.40
2024-01-29T07:24:14.580Z,22.77
2024-01-29T07:26:41.514Z,22.11
2024-01-29T07:29:08.438Z,22.28
2024-01-29T07:31:36.199Z,22.77
2024-01-29T07:34:03.456Z,23.01
2024-01-29T07:36:30.741Z,23.55
2024-01-29T07:38:57.697Z,22.98
2024-01-29T07:41:24.688Z,23.59
2024-01-29T07:43:51.623Z,24.40
2024-01-29T07:46:18.616Z,24.04
2024-01-29T07:48:45.624Z,24.01
2024-01-29T07:51:12.597Z,24.48
2024-01-29T07:53:39.572Z,24.43
2024-01-29T07:56:06.775Z,23.97
2024-01-29T07:58:33.757Z,25.35
2024-01-29T08:01:00.906Z,25.92
2024-01-29T08:03:28.092Z,25.44
2024-01-29T08:06:15.118Z,24.01
2024-01-29T08:08:42.211Z,23.03
2024-01-29T08:11:11.170Z,31.99
2024-01-29T08:13:39.350Z,21.20
2024-01-29T08:16:06.176Z,21.34
2024-01-29T08:18:33.191Z,20.73
2024-01-29T08:21:00.302Z,20.77
2024-01-29T08:23:27.164Z,20.86
2024-01-29T08:25:53.972Z,21.22
2024-01-29T08:28:20.766Z,19.83
2024-01-29T08:30:47.524Z,19.99
2024-01-29T08:33:18.322Z,20.34
2024-01-29T08:35:45.139Z,19.94
2024-01-29T08:38:12.332Z,23.35
2024-01-29T08:40:39.193Z,24.21
2024-01-29T08:43:06.164Z,24.70
2024-01-29T08:45:33.137Z,24.10
2024-01-29T08:48:00.106Z,24.41
2024-01-29T08:50:26.984Z,23.34
2024-01-29T08:52:56.101Z,24.44
2024-01-29T08:55:23.269Z,24.60
2024-01-29T08:57:50.106Z,24.46
2024-01-29T09:00:17.074Z,24.02
2024-01-29T09:02:44.679Z,23.44
2024-01-29T09:05:11.520Z,23.23
2024-01-29T09:07:39.492Z,23.62
2024-01-29T09:10:07.172Z,24.40
2024-01-29T09:12:34.151Z,24.88
2024-01-29T09:15:01.100Z,24.93
2024-01-29T09:17:28.056Z,24.99
2024-01-29T09:19:55.126Z,25.04
2024-01-29T09:22:22.130Z,24.72
2024-01-29T09:24:49.130Z,26.54
2024-01-29T09:27:16.064Z,25.65
2024-01-29T09:29:43.024Z,26.35
2024-01-29T09:32:10.349Z,27.21
2024-01-29T09:34:37.422Z,27.93
2024-01-29T09:37:05.521Z,26.95
2024-01-29T09:39:32.510Z,27.45
2024-01-29T09:42:03.464Z,27.97
2024-01-29T09:44:39.180Z,29.01
2024-01-29T09:47:08.950Z,28.92
2024-01-29T09:49:36.122Z,30.64
2024-01-29T09:52:10.850Z,30.56
2024-01-29T09:54:37.967Z,30.81
2024-01-29T09:57:05.182Z,30.90
2024-01-29T09:59:32.143Z,32.06
2024-01-29T10:01:59.936Z,33.22
2024-01-29T10:04:27.088Z,32.15
2024-01-29T10:06:54.363Z,33.05
2024-01-29T10:09:21.339Z,34.03
2024-01-29T10:11:49.553Z,33.48
2024-01-29T10:14:17.000Z,33.46
2024-01-29T10:16:44.080Z,33.87
2024-01-29T10:19:11.092Z,32.99
2024-01-29T10:21:38.758Z,32.77
2024-01-29T10:24:05.993Z,31.40
2024-01-29T10:26:32.928Z,31.68
2024-01-29T10:29:03.775Z,31.29
2024-01-29T10:31:31.242Z,31.17
2024-01-29T10:33:58.932Z,32.32
2024-01-29T10:36:26.082Z,32.01
2024-01-29T10:38:53.998Z,31.61
2024-01-29T10:41:20.959Z,31.11
2024-01-29T10:43:48.856Z,30.77
2024-01-29T10:46:18.988Z,31.32
2024-01-29T10:48:46.207Z,32.79
2024-01-29T10:51:16.765Z,31.54
2024-01-29T10:53:44.499Z,31.24
2024-01-29T10:56:11.772Z,31.11
2024-01-29T10:58:39.321Z,30.64
2024-01-29T11:01:06.647Z,29.05
2024-01-29T11:03:36.946Z,28.81
2024-01-29T11:06:07.596Z,25.22
2024-01-29T11:08:35.099Z,27.46
2024-01-29T11:11:04.917Z,30.39
2024-01-29T11:13:32.642Z,29.80
2024-01-29T11:15:59.909Z,30.00
2024-01-29T11:18:31.975Z,30.73
2024-01-29T11:20:58.951Z,30.77
2024-01-29T11:23:30.841Z,32.27
2024-01-29T11:25:59.432Z,30.97
2024-01-29T11:28:29.360Z,31.57
2024-01-29T11:30:56.484Z,31.75
2024-01-29T11:33:24.635Z,31.04
2024-01-29T11:35:51.633Z,31.10
2024-01-29T11:38:21.670Z,31.20
2024-01-29T11:40:48.637Z,30.25
2024-01-29T11:43:17.155Z,30.50
2024-01-29T11:45:51.315Z,30.68
2024-01-29T11:48:20.828Z,35.35
2024-01-29T11:50:52.522Z,32.13
2024-01-29T11:53:21.440Z,28.77
2024-01-29T11:55:49.197Z,22.73
2024-01-29T11:58:20.660Z,24.33
2024-01-29T12:00:51.483Z,30.77
2024-01-29T12:03:23.412Z,24.83
2024-01-29T12:05:50.682Z,23.88
2024-01-29T12:08:19.151Z,25.28
2024-01-29T12:10:46.802Z,23.95
2024-01-29T12:13:18.092Z,21.36
2024-01-29T12:15:45.597Z,20.54
2024-01-29T12:18:23.062Z,21.13
2024-01-29T12:20:51.728Z,20.74
2024-01-29T12:23:19.448Z,23.76
2024-01-29T12:25:46.786Z,24.64
2024-01-29T12:28:13.905Z,24.88
2024-01-29T12:30:40.920Z,27.09
2024-01-29T12:33:07.993Z,27.48
2024-01-29T12:35:35.263Z,26.74
2024-01-29T12:38:05.974Z,28.07
2024-01-29T12:40:33.261Z,28.02
2024-01-29T12:43:01.274Z,28.50
2024-01-29T12:45:28.446Z,28.81
2024-01-29T12:48:14.333Z,29.23
2024-01-29T12:50:41.911Z,28.93
2024-01-29T12:53:10.603Z,31.13
2024-01-29T12:55:38.519Z,30.07
2024-01-29T12:58:05.585Z,35.40
2024-01-29T13:00:32.797Z,31.12
2024-01-29T13:03:02.006Z,29.60
2024-01-29T13:05:32.319Z,28.73
2024-01-29T13:07:59.440Z,27.93
2024-01-29T13:10:26.919Z,26.38
2024-01-29T13:12:54.325Z,27.35
2024-01-29T13:15:21.872Z,26.82
2024-01-29T13:17:49.084Z,35.30
2024-01-29T13:20:16.094Z,28.35
2024-01-29T13:22:43.058Z,27.76
2024-01-29T13:25:10.159Z,26.61
2024-01-29T13:27:37.404Z,26.53
2024-01-29T13:30:04.666Z,27.28
2024-01-29T13:32:31.767Z,26.74
2024-01-29T13:34:58.863Z,27.48
2024-01-29T13:37:27.935Z,26.35
2024-01-29T13:39:54.983Z,26.45
2024-01-29T13:42:22.008Z,25.79
2024-01-29T13:44:48.961Z,26.90
2024-01-29T13:47:15.926Z,26.22
2024-01-29T13:49:42.933Z,26.47
2024-01-29T13:52:10.021Z,26.31
2024-01-29T13:54:37.015Z,26.59
2024-01-29T13:57:04.148Z,27.28
2024-01-29T13:59:31.097Z,28.23
2024-01-29T14:01:58.099Z,27.66
2024-01-29T14:04:25.161Z,27.27
2024-01-29T14:06:58.744Z,28.43
2024-01-29T14:09:26.283Z,27.14
2024-01-29T14:11:53.201Z,27.57
2024-01-29T14:14:23.518Z,26.81
2024-01-29T14:16:52.305Z,28.75
2024-01-29T14:19:19.511Z,28.79
2024-01-29T14:21:46.575Z,28.24
2024-01-29T14:24:13.497Z,27.48
2024-01-29T14:26:41.888Z,28.10
2024-01-29T14:29:08.817Z,26.51
2024-01-29T14:31:37.936Z,27.07
2024-01-29T14:34:05.100Z,29.55
2024-01-29T14:36:32.135Z,29.39
2024-01-29T14:38:59.173Z,28.65
2024-01-29T14:41:28.294Z,28.09
2024-01-29T14:43:55.310Z,28.19
2024-01-29T14:46:25.292Z,29.56
2024-01-29T14:48:52.175Z,26.59
2024-01-29T14:51:19.117Z,24.86
2024-01-29T14:53:46.168Z,22.60
2024-01-29T14:56:13.023Z,21.93
2024-01-29T14:58:39.813Z,23.30
2024-01-29T15:01:06.710Z,22.78
2024-01-29T15:03:33.738Z,21.59
2024-01-29T15:06:00.818Z,20.02
2024-01-29T15:08:27.942Z,20.43
2024-01-29T15:10:54.771Z,22.28
2024-01-29T15:13:21.569Z,22.47
2024-01-29T15:15:48.388Z,24.14
2024-01-29T15:18:15.184Z,22.66
2024-01-29T15:20:43.216Z,22.95
2024-01-29T15:23:11.149Z,22.51
2024-01-29T15:25:37.934Z,22.44
2024-01-29T15:28:06.884Z,20.75
2024-01-29T15:30:34.261Z,22.32
2024-01-29T15:33:01.211Z,20.18
2024-01-29T15:35:28.028Z,20.30
2024-01-29T15:37:54.812Z,19.74
2024-01-29T15:40:21.650Z,18.19
2024-01-29T15:42:48.522Z,17.36
2024-01-29T15:45:15.427Z,17.09
2024-01-29T15:47:42.395Z,17.36
2024-01-29T15:50:09.693Z,16.35
2024-01-29T15:52:36.764Z,16.21
2024-01-29T15:55:04.464Z,16.01
2024-01-29T15:57:31.444Z,16.16
2024-01-29T15:59:58.374Z,15.75
2024-01-29T16:02:25.296Z,16.13
2024-01-29T16:04:52.278Z,15.95
2024-01-29T16:07:20.758Z,15.81
2024-01-29T16:09:47.833Z,15.08
2024-01-29T16:12:14.791Z,15.06
2024-01-29T16:14:41.832Z,16.31
2024-01-29T16:17:08.770Z,16.50
2024-01-29T16:19:38.524Z,15.56
2024-01-29T16:22:05.631Z,16.36
2024-01-29T16:24:32.652Z,16.64
2024-01-29T16:26:59.675Z,16.49
2024-01-29T16:29:28.599Z,17.39
2024-01-29T16:31:55.544Z,17.92
2024-01-29T16:34:22.578Z,19.31
2024-01-29T16:36:50.116Z,19.84
2024-01-29T16:39:19.481Z,19.38
2024-01-29T16:41:46.404Z,19.66
2024-01-29T16:44:13.390Z,18.48
2024-01-29T16:46:43.450Z,18.45
2024-01-29T16:49:10.516Z,18.20
2024-01-29T16:51:37.547Z,18.21
2024-01-29T16:54:04.489Z,18.51
2024-01-29T16:56:31.747Z,16.78
2024-01-29T16:59:00.759Z,15.94
2024-01-29T17:01:28.275Z,16.53
2024-01-29T17:03:55.376Z,16.41
2024-01-29T17:06:22.440Z,18.62
2024-01-29T17:08:50.436Z,18.94
2024-01-29T17:11:17.467Z,18.79
2024-01-29T17:13:44.721Z,17.07
2024-01-29T17:16:12.034Z,17.26
2024-01-29T17:18:39.216Z,16.65
2024-01-29T17:21:06.487Z,17.53
2024-01-29T17:23:33.450Z,17.07
2024-01-29T17:26:00.389Z,17.82
2024-01-29T17:28:27.689Z,17.37
2024-01-29T17:30:54.626Z,17.59
2024-01-29T17:33:21.702Z,17.18
2024-01-29T17:35:48.667Z,18.78
2024-01-29T17:38:15.629Z,17.03
2024-01-29T17:40:42.562Z,17.35
2024-01-29T17:43:09.618Z,15.93
2024-01-29T17:45:37.679Z,15.18
2024-01-29T17:48:05.592Z,14.22
2024-01-29T17:50:32.569Z,14.11
2024-01-29T17:53:00.115Z,13.72
2024-01-29T17:55:27.085Z,14.06
2024-01-29T17:57:54.107Z,13.16
2024-01-29T18:00:22.112Z,13.01
2024-01-29T18:02:49.101Z,13.58
2024-01-29T18:05:19.343Z,13.32
2024-01-29T18:07:46.461Z,13.92
2024-01-29T18:10:13.550Z,15.44
2024-01-29T18:12:40.535Z,16.58
2024-01-29T18:15:07.607Z,13.67
2024-01-29T18:17:34.667Z,12.98
2024-01-29T18:20:02.071Z,15.46
2024-01-29T18:22:29.106Z,14.81
2024-01-29T18:24:56.340Z,15.49
2024-01-29T18:27:23.455Z,14.63
2024-01-29T18:29:50.393Z,14.48
2024-01-29T18:32:17.342Z,15.03
2024-01-29T18:34:44.533Z,15.48
2024-01-29T18:37:11.609Z,16.14
2024-01-29T18:39:38.645Z,16.29
2024-01-29T18:42:05.810Z,15.66
2024-01-29T18:44:34.014Z,15.90
2024-01-29T18:47:01.057Z,15.01
2024-01-29T18:49:28.223Z,15.90
2024-01-29T18:52:06.134Z,16.05
2024-01-29T18:54:33.510Z,15.54
2024-01-29T18:57:00.535Z,14.21
2024-01-29T18:59:27.833Z,13.43
2024-01-29T19:01:54.882Z,14.35
2024-01-29T19:04:22.016Z,15.70
2024-01-29T19:06:50.584Z,15.43
2024-01-29T19:09:17.589Z,13.88
2024-01-29T19:11:44.523Z,13.74
2024-01-29T19:14:12.717Z,14.12
2024-01-29T19:16:42.095Z,17.36
2024-01-29T19:19:09.209Z,14.08
2024-01-29T19:21:36.282Z,13.98
2024-01-29T19:24:03.350Z,12.63
2024-01-29T19:26:30.682Z,14.31
2024-01-29T19:28:57.815Z,15.22
2024-01-29T19:31:25.231Z,15.25
2024-01-29T19:33:52.333Z,15.15
2024-01-29T19:36:20.352Z,17.27
2024-01-29T19:38:47.299Z,16.11
2024-01-29T19:41:14.241Z,16.80
2024-01-29T19:43:41.181Z,15.74
2024-01-29T19:46:08.195Z,17.43
2024-01-29T19:48:37.661Z,20.02
2024-01-29T19:51:05.294Z,18.32
2024-01-29T19:53:32.290Z,17.55
2024-01-29T19:55:59.396Z,17.66
2024-01-29T19:58:26.367Z,15.88
2024-01-29T20:00:53.406Z,16.05
2024-01-29T20:03:20.398Z,16.24
2024-01-29T20:05:47.524Z,16.75
2024-01-29T20:08:14.704Z,18.00
2024-01-29T20:10:41.656Z,19.85
2024-01-29T20:13:09.083Z,19.49
2024-01-29T20:15:36.154Z,22.87
2024-01-29T20:18:03.457Z,19.87
2024-01-29T20:20:30.582Z,20.25
2024-01-29T20:22:57.538Z,19.58
2024-01-29T20:25:27.619Z,20.63
2024-01-29T20:27:56.339Z,26.39
2024-01-29T20:30:23.139Z,21.45
2024-01-29T20:32:49.959Z,22.67
2024-01-29T20:35:17.053Z,20.77
2024-01-29T20:37:44.203Z,21.75
2024-01-29T20:40:11.147Z,31.82
2024-01-29T20:42:38.103Z,20.93
2024-01-29T20:45:05.058Z,20.47
2024-01-29T20:47:31.933Z,23.45
2024-01-29T20:49:58.902Z,22.77
2024-01-29T20:52:25.992Z,20.83
2024-01-29T20:54:53.937Z,20.93
2024-01-29T20:57:22.490Z,21.89
2024-01-29T20:59:49.343Z,20.73
2024-01-29T21:02:16.795Z,18.42
2024-01-29T21:04:43.893Z,18.60
2024-01-29T21:07:10.823Z,18.01
2024-01-29T21:09:38.311Z,18.39
2024-01-29T21:12:06.567Z,18.14
2024-01-29T21:14:33.359Z,17.59
2024-01-29T21:17:01.530Z,18.37
2024-01-29T21:19:28.739Z,19.30
2024-01-29T21:21:55.918Z,19.16
2024-01-29T21:24:24.062Z,18.79
2024-01-29T21:26:50.905Z,18.43
2024-01-29T21:29:18.909Z,19.00
2024-01-29T21:31:45.872Z,19.20
2024-01-29T21:34:13.044Z,18.95
2024-01-29T21:36:40.160Z,20.03
2024-01-29T21:39:07.354Z,17.73
2024-01-29T21:41:34.368Z,18.38
2024-01-29T21:44:02.464Z,18.33
2024-01-29T21:46:29.394Z,17.03
2024-01-29T21:48:56.791Z,17.84
2024-01-29T21:51:26.814Z,19.44
2024-01-29T21:53:53.781Z,18.53
2024-01-29T21:56:20.765Z,18.41
2024-01-29T21:58:47.695Z,18.36
2024-01-29T22:01:14.722Z,17.70
2024-01-29T22:03:41.844Z,17.82
2024-01-29T22:06:08.992Z,19.20
2024-01-29T22:08:35.954Z,17.63
2024-01-29T22:11:02.866Z,17.70
2024-01-29T22:13:29.833Z,18.94
2024-01-29T22:15:56.829Z,18.32
2024-01-29T22:18:23.837Z,18.63
2024-01-29T22:21:03.080Z,18.38
2024-01-29T22:23:30.153Z,19.39
2024-01-29T22:25:57.154Z,18.99
2024-01-29T22:28:24.610Z,18.63
2024-01-29T22:30:51.617Z,18.91
2024-01-29T22:33:18.733Z,19.69
2024-01-29T22:35:45.699Z,18.84
2024-01-29T22:38:13.609Z,18.89
2024-01-29T22:40:40.703Z,16.83
2024-01-29T22:43:07.839Z,17.11
2024-01-29T22:45:35.321Z,18.95
2024-01-29T22:48:02.598Z,17.78
2024-01-29T22:50:29.564Z,18.76
2024-01-29T22:52:56.479Z,19.63
2024-01-29T22:55:23.596Z,18.95
2024-01-29T22:57:50.745Z,19.04
2024-01-29T23:00:18.015Z,19.54
2024-01-29T23:02:44.948Z,19.17
2024-01-29T23:05:15.036Z,20.84
2024-01-29T23:07:41.980Z,22.18
2024-01-29T23:10:09.287Z,21.83
2024-01-29T23:12:36.608Z,20.33
2024-01-29T23:15:04.063Z,20.77
2024-01-29T23:17:31.066Z,20.08
2024-01-29T23:19:58.017Z,19.71
2024-01-29T23:22:25.064Z,19.13
2024-01-29T23:24:52.060Z,19.51
2024-01-29T23:27:19.218Z,18.75
2024-01-29T23:29:46.163Z,18.99
2024-01-29T23:32:13.107Z,18.35
2024-01-29T23:34:40.050Z,19.64
2024-01-29T23:37:10.028Z,19.62
2024-01-29T23:39:37.122Z,19.14
2024-01-29T23:42:04.241Z,20.11
2024-01-29T23:44:31.248Z,20.00
2024-01-29T23:46:58.193Z,20.73
2024-01-29T23:49:25.260Z,22.95
2024-01-29T23:51:52.285Z,21.15
2024-01-29T23:54:19.243Z,20.10
2024-01-29T23:56:46.182Z,20.77
2024-01-29T23:59:13.117Z,20.54
